CheckWX is a tool to help pilots better visualize weather data.  It is not intended as a substitute for an official pre-flight weather briefing.

19:17:03 UTC

CYXL METAR
Sioux Lookout Airport
Sioux Lookout, Canada
Current

1 hour ago

CYXL 261800Z 36004KT 340V110 15SM FEW030 BKN160 BKN210 09/M01 A3018 RMK SC1AS5CS2 SC TR SLP236
Observed
May-26 @ 18:00 UTC
Wind
  • 360° at 4 KTS
Visibility
15 SM
Flight Rules
VFR
Cloud Levels
  • Few at 3,000' AGL
  • Broken at 16,000' AGL
  • Broken at 21,000' AGL
Temperature
C / 48°F
Dewpoint
-1°C / 30°F
Humidity
50%
Altimeter
30.18" Hg
Pressure
1022.02 hPa
Previous

2 hours ago

CYXL 261700Z 36008KT 300V090 15SM FEW030 SCT150 BKN210 08/M00 A3019 RMK SC2AC2CI2 SLP236
Observed
May-26 @ 17:00 UTC
Wind
  • 360° at 8 KTS
Visibility
15 SM
Flight Rules
VFR
Cloud Levels
  • Few at 3,000' AGL
  • Scattered at 15,000' AGL
  • Broken at 21,000' AGL
Temperature
C / 46°F
Dewpoint
C / 32°F
Humidity
57%
Altimeter
30.19" Hg
Pressure
1022.32 hPa
Previous

3 hours ago

CYXL 261600Z VRB06KT 15SM FEW026 SCT090 BKN180 07/00 A3018 RMK CU2AC1CI4 SLP235
Observed
May-26 @ 16:00 UTC
Wind
  • Variable at 6 KTS
Visibility
15 SM
Flight Rules
VFR
Cloud Levels
  • Few at 2,600' AGL
  • Scattered at 9,000' AGL
  • Broken at 18,000' AGL
Temperature
C / 45°F
Dewpoint
C / 32°F
Humidity
61%
Altimeter
30.18" Hg
Pressure
1022.02 hPa